createdAt,value
2023-04-01T00:01:28.298Z,2.28
2023-04-01T00:03:55.894Z,3.03
2023-04-01T00:06:23.127Z,2.10
2023-04-01T00:08:49.951Z,1.30
2023-04-01T00:11:17.899Z,2.25
2023-04-01T00:13:48.066Z,2.50
2023-04-01T00:16:21.809Z,2.72
2023-04-01T00:18:49.543Z,3.03
2023-04-01T00:21:16.898Z,2.63
2023-04-01T00:23:44.546Z,2.63
2023-04-01T00:26:12.990Z,3.40
2023-04-01T00:28:39.951Z,4.15
2023-04-01T00:31:08.293Z,3.13
2023-04-01T00:33:35.404Z,1.45
2023-04-01T00:36:16.157Z,1.90
2023-04-01T00:38:43.619Z,3.33
2023-04-01T00:41:16.512Z,2.17
2023-04-01T00:43:49.280Z,1.57
2023-04-01T00:46:16.234Z,3.72
2023-04-01T00:48:54.343Z,2.88
2023-04-01T00:51:29.053Z,2.67
2023-04-01T00:53:57.630Z,1.52
2023-04-01T00:56:29.286Z,1.90
2023-04-01T00:59:00.433Z,0.90
2023-04-01T01:01:29.309Z,1.00
2023-04-01T01:03:56.413Z,2.10
2023-04-01T01:06:47.610Z,1.75
2023-04-01T01:09:33.182Z,1.33
2023-04-01T01:12:11.367Z,1.13
2023-04-01T01:14:47.676Z,2.05
2023-04-01T01:17:23.398Z,1.20
2023-04-01T01:20:25.874Z,3.72
2023-04-01T01:23:24.546Z,0.90
2023-04-01T01:26:17.447Z,1.98
2023-04-01T01:29:05.546Z,1.98
2023-04-01T01:31:39.034Z,2.00
2023-04-01T01:34:33.626Z,1.30
2023-04-01T01:37:04.674Z,1.60
2023-04-01T01:39:32.756Z,1.38
2023-04-01T01:42:03.441Z,2.35
2023-04-01T01:44:30.523Z,1.70
2023-04-01T01:46:57.563Z,1.52
2023-04-01T01:49:25.019Z,1.30
2023-04-01T01:51:51.828Z,1.63
2023-04-01T01:54:19.226Z,1.77
2023-04-01T01:56:48.597Z,1.13
2023-04-01T01:59:16.717Z,0.90
2023-04-01T02:01:46.553Z,0.70
2023-04-01T02:04:14.576Z,1.00
2023-04-01T02:06:45.893Z,0.73
2023-04-01T02:09:12.786Z,1.30
2023-04-01T02:12:00.295Z,1.77
2023-04-01T02:14:32.837Z,1.93
2023-04-01T02:17:04.972Z,1.88
2023-04-01T02:19:39.596Z,2.58
2023-04-01T02:22:10.690Z,2.15
2023-04-01T02:24:38.927Z,2.85
2023-04-01T02:27:05.735Z,1.67
2023-04-01T02:29:32.892Z,1.58
2023-04-01T02:32:00.013Z,3.00
2023-04-01T02:34:27.493Z,1.33
2023-04-01T02:36:55.426Z,2.33
2023-04-01T02:39:22.583Z,3.37
2023-04-01T02:41:49.585Z,0.60
2023-04-01T02:44:17.003Z,0.60
2023-04-01T02:46:44.201Z,1.48
2023-04-01T02:49:10.993Z,1.98
2023-04-01T02:51:37.817Z,1.33
2023-04-01T02:54:04.708Z,4.40
2023-04-01T02:56:31.483Z,3.47
2023-04-01T02:58:58.228Z,2.17
2023-04-01T03:01:25.014Z,2.35
2023-04-01T03:03:51.665Z,2.37
2023-04-01T03:06:18.868Z,3.65
2023-04-01T03:08:45.941Z,2.03
2023-04-01T03:11:13.253Z,2.92
2023-04-01T03:13:40.042Z,1.67
2023-04-01T03:16:07.506Z,1.27
2023-04-01T03:18:34.346Z,1.05
2023-04-01T03:21:21.736Z,1.05
2023-04-01T03:23:48.504Z,0.55
2023-04-01T03:26:16.150Z,0.55
2023-04-01T03:28:42.896Z,0.70
2023-04-01T03:31:09.888Z,2.05
2023-04-01T03:33:36.643Z,1.40
2023-04-01T03:36:07.339Z,1.20
2023-04-01T03:38:35.303Z,1.30
2023-04-01T03:41:02.386Z,0.83
2023-04-01T03:43:29.053Z,0.80
2023-04-01T03:45:55.872Z,1.40
2023-04-01T03:48:22.579Z,0.98
2023-04-01T03:50:49.453Z,2.05
2023-04-01T03:53:16.397Z,0.67
2023-04-01T03:55:43.156Z,1.33
2023-04-01T03:58:10.397Z,1.05
2023-04-01T04:00:37.171Z,1.35
2023-04-01T04:03:04.016Z,1.52
2023-04-01T04:05:30.967Z,0.80
2023-04-01T04:07:57.980Z,1.48
2023-04-01T04:10:26.067Z,1.52
2023-04-01T04:12:53.330Z,0.90
2023-04-01T04:15:20.268Z,1.58
2023-04-01T04:17:47.009Z,1.53
2023-04-01T04:20:13.878Z,1.60
2023-04-01T04:22:40.768Z,1.23
2023-04-01T04:25:08.001Z,1.83
2023-04-01T04:27:35.275Z,0.75
2023-04-01T04:30:02.106Z,3.00
2023-04-01T04:32:30.027Z,2.40
2023-04-01T04:34:56.847Z,2.42
2023-04-01T04:37:23.579Z,1.80
2023-04-01T04:39:50.354Z,1.02
2023-04-01T04:42:17.088Z,2.53
2023-04-01T04:44:43.827Z,1.17
2023-04-01T04:47:10.687Z,2.40
2023-04-01T04:49:37.450Z,0.82
2023-04-01T04:52:04.191Z,2.60
2023-04-01T04:54:31.080Z,1.80
2023-04-01T04:56:57.880Z,2.83
2023-04-01T04:59:24.638Z,1.98
2023-04-01T05:01:51.459Z,1.52
2023-04-01T05:04:18.206Z,1.45
2023-04-01T05:06:46.067Z,1.07
2023-04-01T05:09:13.102Z,2.78
2023-04-01T05:11:39.799Z,1.40
2023-04-01T05:14:06.788Z,1.60
2023-04-01T05:16:33.573Z,1.45
2023-04-01T05:19:00.413Z,2.60
2023-04-01T05:21:27.246Z,1.98
2023-04-01T05:23:53.905Z,1.20
2023-04-01T05:26:20.750Z,1.10
2023-04-01T05:28:47.518Z,1.65
2023-04-01T05:31:14.294Z,2.63
2023-04-01T05:33:41.106Z,2.08
2023-04-01T05:36:10.671Z,2.00
2023-04-01T05:38:38.101Z,2.95
2023-04-01T05:41:04.862Z,1.50
2023-04-01T05:43:31.649Z,1.67
2023-04-01T05:45:58.992Z,3.85
2023-04-01T05:48:25.715Z,0.95
2023-04-01T05:50:52.442Z,2.47
2023-04-01T05:53:19.178Z,1.10
2023-04-01T05:55:45.999Z,1.30
2023-04-01T05:58:12.695Z,2.90
2023-04-01T06:00:39.705Z,2.78
2023-04-01T06:03:06.578Z,0.80
2023-04-01T06:05:43.877Z,2.05
2023-04-01T06:08:20.443Z,2.17
2023-04-01T06:11:01.333Z,3.83
2023-04-01T06:13:52.954Z,1.77
2023-04-01T06:16:46.624Z,1.63
2023-04-01T06:19:28.462Z,2.50
2023-04-01T06:22:01.135Z,1.73
2023-04-01T06:25:06.748Z,1.95
2023-04-01T06:27:48.545Z,1.73
2023-04-01T06:30:39.655Z,1.70
2023-04-01T06:33:21.620Z,3.17
2023-04-01T06:36:32.969Z,2.30
2023-04-01T06:39:11.059Z,1.55
2023-04-01T06:42:01.052Z,1.08
2023-04-01T06:44:51.225Z,2.97
2023-04-01T06:47:49.179Z,1.17
2023-04-01T06:50:21.926Z,2.57
2023-04-01T06:53:21.081Z,0.93
2023-04-01T06:55:51.107Z,1.67
2023-04-01T06:58:26.540Z,2.83
2023-04-01T07:00:57.684Z,2.53
2023-04-01T07:03:31.407Z,4.07
2023-04-01T07:06:00.707Z,1.15
2023-04-01T07:08:29.779Z,1.15
2023-04-01T07:11:03.392Z,2.00
2023-04-01T07:13:40.294Z,1.88
2023-04-01T07:16:28.649Z,2.93
2023-04-01T07:19:34.182Z,1.60
2023-04-01T07:22:18.906Z,1.98
2023-04-01T07:24:45.777Z,2.60
2023-04-01T07:27:14.502Z,2.35
2023-04-01T07:29:41.783Z,2.27
2023-04-01T07:32:26.612Z,3.55
2023-04-01T07:35:32.573Z,1.17
2023-04-01T07:38:25.838Z,0.85
2023-04-01T07:41:24.829Z,3.60
2023-04-01T07:44:11.976Z,0.83
2023-04-01T07:46:54.370Z,1.00
2023-04-01T07:49:37.392Z,2.38
2023-04-01T07:52:09.290Z,1.55
2023-04-01T07:54:54.899Z,2.67
2023-04-01T07:57:44.246Z,1.67
2023-04-01T08:00:10.861Z,2.22
2023-04-01T08:02:55.902Z,1.27
2023-04-01T08:05:46.988Z,2.65
2023-04-01T08:09:01.970Z,0.98
2023-04-01T08:11:37.942Z,2.60
2023-04-01T08:14:13.579Z,2.50
2023-04-01T08:17:14.118Z,1.15
2023-04-01T08:19:56.893Z,1.85
2023-04-01T08:22:30.734Z,1.10
2023-04-01T08:25:03.234Z,1.07
2023-04-01T08:27:42.826Z,3.00
2023-04-01T08:30:21.714Z,1.20
2023-04-01T08:32:59.516Z,1.35
2023-04-01T08:35:38.707Z,2.20
2023-04-01T08:38:38.287Z,0.90
2023-04-01T08:41:36.053Z,1.10
2023-04-01T08:44:31.787Z,0.82
2023-04-01T08:47:26.598Z,2.10
2023-04-01T08:50:22.597Z,0.55
2023-04-01T08:53:07.841Z,1.53
2023-04-01T08:55:58.538Z,2.42
2023-04-01T08:58:51.273Z,1.45
2023-04-01T09:01:27.073Z,1.48
2023-04-01T09:04:18.966Z,2.30
2023-04-01T09:07:01.081Z,1.97
2023-04-01T09:09:30.748Z,2.60
2023-04-01T09:12:35.803Z,2.25
2023-04-01T09:15:18.244Z,1.90
2023-04-01T09:18:24.257Z,4.82
2023-04-01T09:21:04.138Z,2.00
2023-04-01T09:23:39.820Z,1.67
2023-04-01T09:26:15.990Z,2.08
2023-04-01T09:29:07.644Z,4.47
2023-04-01T09:31:55.949Z,2.50
2023-04-01T09:34:32.497Z,1.70
2023-04-01T09:37:10.074Z,3.38
2023-04-01T09:39:37.555Z,3.17
2023-04-01T09:42:27.794Z,1.20
2023-04-01T09:45:47.104Z,4.80
2023-04-01T09:48:31.908Z,3.80
2023-04-01T09:51:36.331Z,3.28
2023-04-01T09:54:14.131Z,2.33
2023-04-01T09:56:59.528Z,2.53
2023-04-01T09:59:48.885Z,1.80
2023-04-01T10:02:24.679Z,3.60
2023-04-01T10:05:11.091Z,2.38
2023-04-01T10:07:40.840Z,4.40
2023-04-01T10:10:36.326Z,2.25
2023-04-01T10:13:21.932Z,2.20
2023-04-01T10:15:57.741Z,4.07
2023-04-01T10:18:43.076Z,3.92
2023-04-01T10:21:31.361Z,3.47
2023-04-01T10:24:12.909Z,2.88
2023-04-01T10:27:16.481Z,1.90
2023-04-01T10:29:51.896Z,2.13
2023-04-01T10:32:48.936Z,2.30
2023-04-01T10:35:52.943Z,2.63
2023-04-01T10:38:27.952Z,3.10
2023-04-01T10:40:54.909Z,2.60
2023-04-01T10:43:59.271Z,3.17
2023-04-01T10:46:34.833Z,2.40
2023-04-01T10:49:39.160Z,2.15
2023-04-01T10:52:21.169Z,1.20
2023-04-01T10:55:18.652Z,2.00
2023-04-01T10:58:22.336Z,1.63
2023-04-01T11:01:06.975Z,2.28
2023-04-01T11:03:52.469Z,1.63
2023-04-01T11:06:57.041Z,1.65
2023-04-01T11:09:57.341Z,1.52
2023-04-01T11:13:01.417Z,2.37
2023-04-01T11:15:37.257Z,1.83
2023-04-01T11:18:13.356Z,1.38
2023-04-01T11:20:59.024Z,1.33
2023-04-01T11:24:04.985Z,3.20
2023-04-01T11:27:00.749Z,1.93
2023-04-01T11:29:59.778Z,0.65
2023-04-01T11:32:48.764Z,2.10
2023-04-01T11:35:25.902Z,2.05
2023-04-01T11:38:13.820Z,2.38
2023-04-01T11:41:12.606Z,3.27
2023-04-01T11:43:47.474Z,1.55
2023-04-01T11:46:56.240Z,2.17
2023-04-01T11:50:17.287Z,4.13
2023-04-01T11:52:55.835Z,3.72
2023-04-01T11:55:44.007Z,4.47
2023-04-01T11:58:25.061Z,1.30
2023-04-01T12:01:05.030Z,2.15
2023-04-01T12:04:09.326Z,1.65
2023-04-01T12:06:57.890Z,2.40
2023-04-01T12:09:46.286Z,1.67
2023-04-01T12:12:47.734Z,1.33
2023-04-01T12:15:32.115Z,1.77
2023-04-01T12:18:12.087Z,2.75
2023-04-01T12:20:51.576Z,2.10
2023-04-01T12:23:58.726Z,2.13
2023-04-01T12:26:48.598Z,2.17
2023-04-01T12:29:45.856Z,2.50
2023-04-01T12:32:21.617Z,2.40
2023-04-01T12:34:58.940Z,1.63
2023-04-01T12:37:48.966Z,2.03
2023-04-01T12:40:34.210Z,3.17
2023-04-01T12:43:28.521Z,2.30
2023-04-01T12:46:01.201Z,2.05
2023-04-01T12:48:43.111Z,3.55
2023-04-01T12:51:28.902Z,1.73
2023-04-01T12:54:27.220Z,1.70
2023-04-01T12:57:12.451Z,1.27
2023-04-01T13:00:09.676Z,2.00
2023-04-01T13:02:36.533Z,1.73
2023-04-01T13:05:21.996Z,2.10
2023-04-01T13:07:51.543Z,2.83
2023-04-01T13:10:55.898Z,3.22
2023-04-01T13:13:45.698Z,2.22
2023-04-01T13:16:40.298Z,2.83
2023-04-01T13:19:19.308Z,2.90
2023-04-01T13:21:59.888Z,2.60
2023-04-01T13:24:55.865Z,2.90
2023-04-01T13:27:37.421Z,2.40
2023-04-01T13:30:28.101Z,2.78
2023-04-01T13:33:03.517Z,3.20
2023-04-01T13:35:34.959Z,2.50
2023-04-01T13:38:30.407Z,2.33
2023-04-01T13:41:04.078Z,3.47
2023-04-01T13:43:34.597Z,2.35
2023-04-01T13:46:04.061Z,2.20
2023-04-01T13:49:09.819Z,3.38
2023-04-01T13:52:04.126Z,1.98
2023-04-01T13:54:56.182Z,1.80
2023-04-01T13:57:30.537Z,2.08
2023-04-01T14:00:31.382Z,3.13
2023-04-01T14:03:07.373Z,1.65
2023-04-01T14:06:04.597Z,2.63
2023-04-01T14:08:37.283Z,2.45
2023-04-01T14:11:31.981Z,2.10
2023-04-01T14:14:20.194Z,3.00
2023-04-01T14:17:05.396Z,1.77
2023-04-01T14:19:58.309Z,2.13
2023-04-01T14:22:38.660Z,2.83
2023-04-01T14:25:53.074Z,3.63
2023-04-01T14:28:46.985Z,3.50
2023-04-01T14:31:46.216Z,2.10
2023-04-01T14:34:16.045Z,3.33
2023-04-01T14:36:52.787Z,3.95
2023-04-01T14:39:52.727Z,2.00
2023-04-01T14:42:22.720Z,3.03
2023-04-01T14:45:07.651Z,3.20
2023-04-01T14:48:13.200Z,4.53
2023-04-01T14:50:45.945Z,3.20
2023-04-01T14:53:12.707Z,2.17
2023-04-01T14:55:42.395Z,3.20
2023-04-01T14:58:13.334Z,2.58
2023-04-01T15:00:56.014Z,4.22
2023-04-01T15:03:34.174Z,3.60
2023-04-01T15:06:25.065Z,3.47
2023-04-01T15:09:19.019Z,3.30
2023-04-01T15:11:51.593Z,3.33
2023-04-01T15:14:28.206Z,3.65
2023-04-01T15:17:30.340Z,3.35
2023-04-01T15:20:12.284Z,2.60
2023-04-01T15:22:45.294Z,2.97
2023-04-01T15:25:46.090Z,3.10
2023-04-01T15:28:38.639Z,2.05
2023-04-01T15:31:44.114Z,1.95
2023-04-01T15:34:33.935Z,2.28
2023-04-01T15:37:15.470Z,0.97
2023-04-01T15:40:09.114Z,1.48
2023-04-01T15:43:04.641Z,1.75
2023-04-01T15:45:40.491Z,1.98
2023-04-01T15:48:47.343Z,0.85
2023-04-01T15:51:20.009Z,1.70
2023-04-01T15:53:55.913Z,1.63
2023-04-01T15:56:27.474Z,1.40
2023-04-01T15:59:08.863Z,2.03
2023-04-01T16:01:56.085Z,0.90
2023-04-01T16:04:35.549Z,0.70
2023-04-01T16:07:43.446Z,0.82
2023-04-01T16:10:28.532Z,0.88
2023-04-01T16:13:07.109Z,3.13
2023-04-01T16:16:06.364Z,2.45
2023-04-01T16:18:58.499Z,2.83
2023-04-01T16:21:54.868Z,1.25
2023-04-01T16:24:39.601Z,1.30
2023-04-01T16:27:20.070Z,2.97
2023-04-01T16:29:53.140Z,1.48
2023-04-01T16:32:30.599Z,1.80
2023-04-01T16:35:22.074Z,1.40
2023-04-01T16:38:30.502Z,2.60
2023-04-01T16:41:02.395Z,0.82
2023-04-01T16:43:40.120Z,1.00
2023-04-01T16:46:36.402Z,2.17
2023-04-01T16:49:12.378Z,1.92
2023-04-01T16:51:47.840Z,0.98
2023-04-01T16:54:27.738Z,1.40
2023-04-01T17:00:01.948Z,1.63
2023-04-01T17:03:10.980Z,1.02
2023-04-01T17:05:50.447Z,1.55
2023-04-01T17:08:18.850Z,1.80
2023-04-01T17:11:02.347Z,2.25
2023-04-01T17:13:48.125Z,1.10
2023-04-01T17:16:40.101Z,2.35
2023-04-01T17:19:16.061Z,1.73
2023-04-01T17:22:04.445Z,2.20
2023-04-01T17:25:09.720Z,1.80
2023-04-01T17:27:49.553Z,1.90
2023-04-01T17:30:36.735Z,1.25
2023-04-01T17:33:18.865Z,0.93
2023-04-01T17:36:03.915Z,0.60
2023-04-01T17:38:47.740Z,2.15
2023-04-01T17:41:14.395Z,3.20
2023-04-01T17:43:47.073Z,1.92
2023-04-01T17:46:22.757Z,2.88
2023-04-01T17:49:23.358Z,5.35
2023-04-01T17:52:09.000Z,5.82
2023-04-01T17:55:07.703Z,4.70
2023-04-01T17:58:01.926Z,6.57
2023-04-01T18:00:59.836Z,5.80
2023-04-01T18:03:58.038Z,6.10
2023-04-01T18:06:24.785Z,5.65
2023-04-01T18:09:20.649Z,3.67
2023-04-01T18:12:24.905Z,3.60
2023-04-01T18:15:25.325Z,1.90
2023-04-01T18:18:07.110Z,2.72
2023-04-01T18:20:54.647Z,2.38
2023-04-01T18:23:31.314Z,1.87
2023-04-01T18:26:11.515Z,1.35
2023-04-01T18:28:54.405Z,2.05
2023-04-01T18:31:27.436Z,3.33
2023-04-01T18:33:54.054Z,3.53
2023-04-01T18:36:43.073Z,1.57
2023-04-01T18:39:25.905Z,2.97
2023-04-01T18:42:04.596Z,6.93
2023-04-01T18:44:35.906Z,8.55
2023-04-01T18:47:17.931Z,12.18
2023-04-01T18:49:53.506Z,12.53
2023-04-01T18:52:25.058Z,8.35
2023-04-01T18:54:54.694Z,7.82
2023-04-01T18:57:21.601Z,3.90
2023-04-01T18:59:54.571Z,3.70
2023-04-01T19:02:46.372Z,3.93
2023-04-01T19:05:33.165Z,2.92
2023-04-01T19:08:25.985Z,2.15
2023-04-01T19:11:17.097Z,2.88
2023-04-01T19:14:18.063Z,1.38
2023-04-01T19:17:17.749Z,4.50
2023-04-01T19:19:56.096Z,2.13
2023-04-01T19:22:38.048Z,5.13
2023-04-01T19:25:27.214Z,12.10
2023-04-01T19:28:17.982Z,16.77
2023-04-01T19:31:03.149Z,7.33
2023-04-01T19:33:42.658Z,6.15
2023-04-01T19:36:19.683Z,6.15
2023-04-01T19:39:11.865Z,9.77
2023-04-01T19:41:41.760Z,10.73
2023-04-01T19:44:17.112Z,8.97
2023-04-01T19:47:04.930Z,5.72
2023-04-01T19:49:39.968Z,7.32
2023-04-01T19:52:06.679Z,5.50
2023-04-01T19:54:48.128Z,8.50
2023-04-01T19:57:39.509Z,6.30
2023-04-01T20:00:09.039Z,6.60
2023-04-01T20:02:51.991Z,6.65
2023-04-01T20:05:41.230Z,4.85
2023-04-01T20:08:17.113Z,4.60
2023-04-01T20:10:58.826Z,5.87
2023-04-01T20:14:03.663Z,5.47
2023-04-01T20:16:57.624Z,4.43
2023-04-01T20:19:29.334Z,3.47
2023-04-01T20:21:59.483Z,5.90
2023-04-01T20:24:42.556Z,3.17
2023-04-01T20:27:15.499Z,3.10
2023-04-01T20:29:45.074Z,3.05
2023-04-01T20:32:16.272Z,3.03
2023-04-01T20:34:57.764Z,3.47
2023-04-01T20:37:55.698Z,2.40
2023-04-01T20:40:33.698Z,3.13
2023-04-01T20:43:28.161Z,3.08
2023-04-01T20:46:10.290Z,3.70
2023-04-01T20:48:53.337Z,3.40
2023-04-01T20:51:30.618Z,4.27
2023-04-01T20:54:23.969Z,5.60
2023-04-01T20:56:58.602Z,5.55
2023-04-01T20:59:26.821Z,3.17
2023-04-01T21:02:05.681Z,4.20
2023-04-01T21:04:46.342Z,3.40
2023-04-01T21:07:22.790Z,4.18
2023-04-01T21:10:20.066Z,3.85
2023-04-01T21:12:57.811Z,4.70
2023-04-01T21:15:43.311Z,5.78
2023-04-01T21:18:21.864Z,5.47
2023-04-01T21:20:58.024Z,5.55
2023-04-01T21:23:40.404Z,6.68
2023-04-01T21:26:47.710Z,6.05
2023-04-01T21:29:35.906Z,6.57
2023-04-01T21:32:33.433Z,5.63
2023-04-01T21:35:27.707Z,4.30
2023-04-01T21:38:15.998Z,3.72
2023-04-01T21:41:04.146Z,5.25
2023-04-01T21:43:49.334Z,5.97
2023-04-01T21:46:24.839Z,4.50
2023-04-01T21:49:34.701Z,3.47
2023-04-01T21:52:24.354Z,2.72
2023-04-01T21:55:08.970Z,2.88
2023-04-01T21:57:50.923Z,3.90
2023-04-01T22:00:25.051Z,3.17
2023-04-01T22:03:26.747Z,2.85
2023-04-01T22:05:58.039Z,3.25
2023-04-01T22:08:30.469Z,4.82
2023-04-01T22:11:23.605Z,3.25
2023-04-01T22:14:08.482Z,3.00
2023-04-01T22:16:51.740Z,5.35
2023-04-01T22:19:21.039Z,3.78
2023-04-01T22:22:30.054Z,4.72
2023-04-01T22:25:15.844Z,2.78
2023-04-01T22:28:01.296Z,4.33
2023-04-01T22:30:31.829Z,3.60
2023-04-01T22:33:27.643Z,2.55
2023-04-01T22:35:57.621Z,4.80
2023-04-01T22:38:45.524Z,4.05
2023-04-01T22:41:21.949Z,3.00
2023-04-01T22:43:49.249Z,3.20
2023-04-01T22:46:34.832Z,2.67
2023-04-01T22:49:10.780Z,3.28
2023-04-01T22:51:45.849Z,2.20
2023-04-01T22:54:33.119Z,2.77
2023-04-01T22:57:06.449Z,3.63
2023-04-01T22:59:40.695Z,3.10
2023-04-01T23:02:12.598Z,2.40
2023-04-01T23:04:41.340Z,2.70
2023-04-01T23:07:26.451Z,2.10
2023-04-01T23:09:54.436Z,1.10
2023-04-01T23:12:22.251Z,1.95
2023-04-01T23:14:52.138Z,2.33
2023-04-01T23:17:37.194Z,2.33
2023-04-01T23:20:23.610Z,1.67
2023-04-01T23:23:01.662Z,1.45
2023-04-01T23:25:35.799Z,1.05
2023-04-01T23:28:14.758Z,1.85
2023-04-01T23:30:41.451Z,1.40
2023-04-01T23:33:21.013Z,2.47
2023-04-01T23:35:49.280Z,0.98
2023-04-01T23:38:17.040Z,1.63
2023-04-01T23:40:44.041Z,0.80
2023-04-01T23:43:16.014Z,1.17
2023-04-01T23:45:43.697Z,1.87
2023-04-01T23:48:13.645Z,0.90
2023-04-01T23:50:40.908Z,1.70
2023-04-01T23:53:18.701Z,0.60
2023-04-01T23:55:45.523Z,0.75
2023-04-01T23:58:17.119Z,0.63
